Time;durP1;ratioP1;P1;durP2;ratioP2;P2;SDS_P1;SDS_P2;PMS_P1;PMS_P2;Temp;Humidity;BMP_temperature;BMP_pressure;BME280_temperature;BME280_humidity;BME280_pressure;Samples;Min_cycle;Max_cycle;Signal;HPM_P1;HPM_P2
2023/05/16 00:01:07;;;;;;;40.08;19.42;;;10.80;99.90;;;;;;5091996;28;20435;-73
2023/05/16 00:03:33;;;;;;;44.55;21.25;;;10.70;99.90;;;;;;5092237;28;20516;-73
2023/05/16 00:06:01;;;;;;;40.70;21.15;;;10.70;99.90;;;;;;5092088;28;20850;-73
2023/05/16 00:08:27;;;;;;;44.53;21.85;;;10.70;99.90;;;;;;5092459;28;20402;-72
2023/05/16 00:10:52;;;;;;;43.43;22.33;;;10.70;99.90;;;;;;5092144;28;20897;-71
2023/05/16 00:13:23;;;;;;;39.77;20.40;;;10.70;99.90;;;;;;5080331;28;20374;-72
2023/05/16 00:15:50;;;;;;;33.00;16.58;;;10.70;99.90;;;;;;5096231;28;20724;-72
2023/05/16 00:18:17;;;;;;;33.67;16.83;;;10.50;99.90;;;;;;5092505;28;20467;-72
2023/05/16 00:20:42;;;;;;;32.10;17.40;;;10.50;99.90;;;;;;5092416;28;20374;-71
2023/05/16 00:23:08;;;;;;;30.73;16.60;;;10.50;99.90;;;;;;5073368;28;20386;-71
2023/05/16 00:25:33;;;;;;;27.83;15.40;;;10.60;99.90;;;;;;5091818;28;20575;-71
2023/05/16 00:27:59;;;;;;;25.03;14.00;;;10.60;99.90;;;;;;5092750;28;20473;-71
2023/05/16 00:30:24;;;;;;;28.17;15.93;;;10.50;99.90;;;;;;5074044;28;20409;-73
2023/05/16 00:32:50;;;;;;;26.70;16.17;;;10.50;99.90;;;;;;5091483;28;20443;-71
2023/05/16 00:35:15;;;;;;;28.13;15.75;;;10.60;99.90;;;;;;5093339;28;20394;-73
2023/05/16 00:37:41;;;;;;;23.30;13.52;;;10.40;99.90;;;;;;5092751;28;20382;-73
2023/05/16 00:40:07;;;;;;;22.77;13.32;;;10.30;99.90;;;;;;5091605;28;20436;-71
2023/05/16 00:42:32;;;;;;;21.88;13.23;;;10.30;99.90;;;;;;5089908;28;20378;-73
2023/05/16 00:44:58;;;;;;;24.10;13.37;;;10.30;99.90;;;;;;5091537;28;20821;-72
2023/05/16 00:47:24;;;;;;;24.00;11.53;;;10.20;99.90;;;;;;5091827;28;20434;-71
2023/05/16 00:49:50;;;;;;;24.00;11.70;;;10.20;99.90;;;;;;5092075;28;20411;-72
2023/05/16 00:52:15;;;;;;;21.20;12.03;;;10.10;99.90;;;;;;5091004;28;20888;-72
2023/05/16 00:54:41;;;;;;;22.13;12.47;;;10.00;99.90;;;;;;5091663;28;20465;-73
2023/05/16 00:57:07;;;;;;;16.80;9.13;;;10.00;99.90;;;;;;5091516;28;20382;-71
2023/05/16 00:59:33;;;;;;;18.40;9.93;;;9.90;99.90;;;;;;5091425;28;20436;-73
2023/05/16 01:01:58;;;;;;;21.77;9.15;;;9.90;99.90;;;;;;5090571;28;20389;-72
2023/05/16 01:04:25;;;;;;;19.50;9.83;;;9.90;99.90;;;;;;5090947;28;20378;-73
2023/05/16 01:06:51;;;;;;;20.80;11.13;;;9.90;99.90;;;;;;5091219;28;20810;-72
2023/05/16 01:09:16;;;;;;;26.50;11.00;;;9.80;99.90;;;;;;5091585;28;20464;-72
2023/05/16 01:11:45;;;;;;;26.50;12.77;;;9.90;99.90;;;;;;5092617;28;20491;-72
2023/05/16 01:14:29;;;;;;;20.63;13.40;;;9.80;99.90;;;;;;5085367;28;20460;-70
2023/05/16 01:17:22;;;;;;;22.58;12.23;;;9.90;99.90;;;;;;5105122;28;20415;-72
2023/05/16 01:20:07;;;;;;;23.02;9.45;;;9.80;99.90;;;;;;5105104;28;20390;-72
2023/05/16 01:22:59;;;;;;;21.52;10.00;;;9.80;99.90;;;;;;5085443;28;20448;-73
2023/05/16 01:25:33;;;;;;;25.65;11.95;;;9.70;99.90;;;;;;5104235;28;20450;-72
2023/05/16 01:28:00;;;;;;;26.83;13.70;;;9.80;99.90;;;;;;5103511;28;20385;-73
2023/05/16 01:30:31;;;;;;;23.92;13.80;;;9.80;99.90;;;;;;5103981;28;20404;-71
2023/05/16 01:32:57;;;;;;;24.73;14.00;;;9.90;99.90;;;;;;5103789;28;20393;-72
2023/05/16 01:35:24;;;;;;;28.63;13.40;;;9.70;99.90;;;;;;5088707;28;20390;-73
2023/05/16 01:38:15;;;;;;;35.30;18.00;;;9.70;99.90;;;;;;5102941;28;20386;-72
2023/05/16 01:41:05;;;;;;;27.98;12.52;;;9.80;99.90;;;;;;5104686;28;20385;-73
2023/05/16 01:43:40;;;;;;;41.67;19.65;;;9.70;99.90;;;;;;5087612;28;20385;-73
2023/05/16 01:46:14;;;;;;;38.90;18.10;;;9.70;99.90;;;;;;5087597;28;20382;-71
2023/05/16 01:49:00;;;;;;;39.30;17.27;;;9.80;99.90;;;;;;5086100;28;20401;-72
2023/05/16 01:51:31;;;;;;;31.48;16.17;;;9.80;99.90;;;;;;5083850;28;20416;-72
2023/05/16 01:54:01;;;;;;;40.47;14.83;;;9.70;99.90;;;;;;5103314;28;20390;-74
2023/05/16 01:56:28;;;;;;;32.60;12.73;;;9.60;99.90;;;;;;5101704;28;20381;-72
2023/05/16 01:58:55;;;;;;;30.02;12.02;;;9.50;99.90;;;;;;5100253;28;20398;-73
2023/05/16 02:01:21;;;;;;;22.15;10.43;;;9.50;99.90;;;;;;5098402;28;20382;-71
2023/05/16 02:03:47;;;;;;;26.33;8.45;;;9.50;99.90;;;;;;5096960;28;20374;-73
2023/05/16 02:06:12;;;;;;;28.30;9.00;;;9.40;99.90;;;;;;5096176;28;20720;-72
2023/05/16 02:08:38;;;;;;;21.07;9.00;;;9.50;99.90;;;;;;5096039;28;20390;-74
2023/05/16 02:11:03;;;;;;;31.25;9.55;;;9.60;99.90;;;;;;5094904;28;20392;-72
2023/05/16 02:13:29;;;;;;;28.30;9.05;;;9.60;99.90;;;;;;5077412;28;20468;-72
2023/05/16 02:15:55;;;;;;;30.23;9.90;;;9.60;99.90;;;;;;5095856;28;20392;-72
2023/05/16 02:18:22;;;;;;;46.58;12.68;;;9.70;99.90;;;;;;5095363;28;20894;-71
2023/05/16 02:20:48;;;;;;;28.70;12.10;;;9.70;99.90;;;;;;5094699;28;20427;-71
2023/05/16 02:23:14;;;;;;;20.60;10.15;;;9.70;99.90;;;;;;5094835;28;20703;-72
2023/05/16 02:25:39;;;;;;;33.50;11.07;;;9.80;99.90;;;;;;5094709;28;20425;-73
2023/05/16 02:28:05;;;;;;;30.00;9.50;;;9.80;99.90;;;;;;5094378;28;20473;-73
2023/05/16 02:30:31;;;;;;;27.67;10.10;;;9.80;99.90;;;;;;5094722;28;20391;-73
2023/05/16 02:32:57;;;;;;;31.63;10.68;;;9.90;99.90;;;;;;5094023;28;20374;-72
2023/05/16 02:35:23;;;;;;;24.10;9.23;;;9.90;99.90;;;;;;5094674;28;20731;-73
2023/05/16 02:37:48;;;;;;;25.20;9.60;;;9.90;99.90;;;;;;5095600;28;20427;-73
2023/05/16 02:40:14;;;;;;;36.60;9.03;;;9.90;99.90;;;;;;5097771;28;20401;-74
2023/05/16 02:42:40;;;;;;;29.57;7.80;;;9.90;99.90;;;;;;5098852;28;20388;-73
2023/05/16 02:45:05;;;;;;;21.50;7.20;;;9.80;99.90;;;;;;5097987;28;20865;-74
2023/05/16 02:47:31;;;;;;;26.85;6.70;;;9.80;99.90;;;;;;5101889;28;20393;-71
2023/05/16 02:49:57;;;;;;;30.45;7.45;;;9.80;99.90;;;;;;5112226;28;20552;-74
2023/05/16 02:52:22;;;;;;;18.77;6.50;;;9.80;99.90;;;;;;5097321;28;20370;-74
2023/05/16 02:54:48;;;;;;;21.70;7.20;;;9.70;99.90;;;;;;5094143;28;20385;-73
2023/05/16 02:57:14;;;;;;;23.25;7.25;;;9.80;99.90;;;;;;5093931;28;20750;-73
2023/05/16 02:59:39;;;;;;;25.80;7.03;;;9.70;99.90;;;;;;5076015;28;20394;-73
2023/05/16 03:02:05;;;;;;;24.63;6.23;;;9.80;99.90;;;;;;5094412;28;20393;-74
2023/05/16 03:04:31;;;;;;;23.73;7.20;;;9.80;99.90;;;;;;5075563;28;20514;-72
2023/05/16 03:06:56;;;;;;;37.53;7.87;;;9.70;99.90;;;;;;5095361;28;20417;-73
2023/05/16 03:09:22;;;;;;;20.97;6.37;;;9.80;99.90;;;;;;5098071;28;20815;-72
2023/05/16 03:11:47;;;;;;;24.50;6.50;;;9.70;99.90;;;;;;5099167;28;20390;-73
2023/05/16 03:14:13;;;;;;;24.00;6.07;;;9.70;99.90;;;;;;5097976;28;20393;-73
2023/05/16 03:16:40;;;;;;;27.47;6.60;;;9.70;99.90;;;;;;5100647;28;20923;-74
2023/05/16 03:19:06;;;;;;;28.70;7.32;;;9.70;98.20;;;;;;5100650;28;20406;-73
2023/05/16 03:21:31;;;;;;;32.25;6.78;;;9.60;99.90;;;;;;5098898;28;20389;-74
2023/05/16 03:23:57;;;;;;;25.58;6.07;;;9.60;99.90;;;;;;5100695;28;20785;-73
2023/05/16 03:26:26;;;;;;;23.20;5.85;;;9.60;99.90;;;;;;5099829;28;20401;-73
2023/05/16 03:28:52;;;;;;;17.93;5.10;;;9.60;95.70;;;;;;5100965;28;20482;-74
2023/05/16 03:31:18;;;;;;;22.95;5.93;;;9.50;96.60;;;;;;5098349;28;20390;-72
2023/05/16 03:33:43;;;;;;;25.15;6.95;;;9.50;96.60;;;;;;5080380;28;20386;-72
2023/05/16 03:36:09;;;;;;;22.30;6.53;;;9.40;94.60;;;;;;5098401;28;20838;-72
2023/05/16 03:38:35;;;;;;;25.52;5.90;;;9.40;95.20;;;;;;5094185;28;20413;-73
2023/05/16 03:41:01;;;;;;;29.27;6.50;;;9.40;94.80;;;;;;5080819;28;20374;-73
2023/05/16 03:43:27;;;;;;;26.30;5.50;;;9.40;91.20;;;;;;5098198;28;20424;-70
2023/05/16 03:45:53;;;;;;;20.23;5.10;;;9.30;87.20;;;;;;5087564;28;20477;-72
2023/05/16 03:48:18;;;;;;;37.92;7.28;;;9.30;90.00;;;;;;5110792;28;20405;-73
2023/05/16 03:50:44;;;;;;;23.75;6.10;;;9.20;93.70;;;;;;5099074;28;20473;-75
2023/05/16 03:53:10;;;;;;;24.98;6.15;;;9.20;93.60;;;;;;5094374;28;20382;-71
2023/05/16 03:55:36;;;;;;;30.48;6.38;;;9.10;89.80;;;;;;5093187;28;20816;-72
2023/05/16 03:58:02;;;;;;;19.75;5.70;;;9.00;90.30;;;;;;5092668;28;20389;-74
2023/05/16 04:00:28;;;;;;;25.80;6.00;;;9.10;89.30;;;;;;5092760;28;20381;-72
2023/05/16 04:02:53;;;;;;;23.83;5.30;;;9.10;90.70;;;;;;5092304;28;20466;-72
2023/05/16 04:05:19;;;;;;;17.90;5.57;;;9.10;87.70;;;;;;5092533;28;20382;-74
2023/05/16 04:07:45;;;;;;;32.03;6.57;;;9.10;89.40;;;;;;5092919;28;20801;-73
2023/05/16 04:10:10;;;;;;;31.08;7.18;;;9.00;91.10;;;;;;5092273;28;20382;-73
2023/05/16 04:12:36;;;;;;;26.65;7.30;;;9.10;94.90;;;;;;5091735;28;20382;-72
2023/05/16 04:15:03;;;;;;;25.55;6.28;;;9.10;94.60;;;;;;5092927;28;20902;-72
2023/05/16 04:17:28;;;;;;;24.77;7.90;;;9.10;96.20;;;;;;5093829;28;20432;-73
2023/05/16 04:19:54;;;;;;;30.00;7.13;;;9.10;97.70;;;;;;5092379;28;20398;-74
2023/05/16 04:22:21;;;;;;;27.20;7.75;;;9.10;99.90;;;;;;5073143;28;20369;-72
2023/05/16 04:24:46;;;;;;;31.33;5.50;;;9.10;99.10;;;;;;5091829;28;20392;-74
2023/05/16 04:27:12;;;;;;;31.47;6.67;;;9.00;96.40;;;;;;5091943;28;20854;-74
2023/05/16 04:29:37;;;;;;;29.30;7.97;;;9.00;97.00;;;;;;5092043;28;20423;-73
2023/05/16 04:32:03;;;;;;;29.93;7.33;;;9.00;97.20;;;;;;5092956;28;20405;-73
2023/05/16 04:34:29;;;;;;;31.00;8.00;;;9.00;98.30;;;;;;5091810;28;20385;-73
2023/05/16 04:36:55;;;;;;;26.20;7.80;;;8.90;97.30;;;;;;5091872;28;20921;-72
2023/05/16 04:39:21;;;;;;;29.20;7.33;;;8.90;97.10;;;;;;5091927;28;20581;-75
2023/05/16 04:41:46;;;;;;;31.98;8.05;;;8.90;94.30;;;;;;5091304;28;20866;-73
2023/05/16 04:44:12;;;;;;;32.85;7.78;;;8.90;94.90;;;;;;5091814;28;20382;-72
2023/05/16 04:46:38;;;;;;;31.90;7.88;;;8.90;94.90;;;;;;5073613;28;20386;-75
2023/05/16 04:49:03;;;;;;;27.08;6.80;;;8.90;94.40;;;;;;5091899;28;20390;-73
2023/05/16 04:51:30;;;;;;;27.92;6.85;;;8.90;92.60;;;;;;5091098;28;20477;-73
2023/05/16 04:53:57;;;;;;;24.55;6.88;;;8.90;92.80;;;;;;5091555;28;20382;-73
2023/05/16 04:56:22;;;;;;;29.77;6.70;;;8.90;94.30;;;;;;5074060;28;20460;-72
2023/05/16 04:58:48;;;;;;;31.87;7.03;;;8.90;93.40;;;;;;5091714;28;20407;-75
2023/05/16 05:01:13;;;;;;;26.43;6.63;;;8.90;93.40;;;;;;5091148;28;20715;-75
2023/05/16 05:03:39;;;;;;;32.77;6.97;;;8.90;91.20;;;;;;5091952;28;20380;-75
2023/05/16 05:06:05;;;;;;;26.77;6.83;;;8.90;93.30;;;;;;5091974;28;20858;-71
2023/05/16 05:08:31;;;;;;;26.58;6.90;;;8.90;92.30;;;;;;5091679;28;20438;-72
2023/05/16 05:10:56;;;;;;;23.30;6.27;;;8.90;90.80;;;;;;5091423;28;20386;-72
2023/05/16 05:13:23;;;;;;;40.03;6.90;;;9.00;91.10;;;;;;5092473;28;20378;-74
2023/05/16 05:15:50;;;;;;;28.30;5.72;;;9.00;88.70;;;;;;5074097;28;20386;-74
2023/05/16 05:18:16;;;;;;;26.08;5.60;;;8.90;85.20;;;;;;5097482;28;20394;-75
2023/05/16 05:20:42;;;;;;;29.63;6.70;;;8.90;87.00;;;;;;5100140;28;20388;-72
2023/05/16 05:23:08;;;;;;;27.23;6.00;;;8.90;85.90;;;;;;5094263;28;20764;-72
2023/05/16 05:25:35;;;;;;;37.33;6.85;;;9.00;88.90;;;;;;5091349;28;20385;-73
2023/05/16 05:28:01;;;;;;;24.50;6.83;;;9.10;86.00;;;;;;5076881;28;20390;-72
2023/05/16 05:30:26;;;;;;;24.73;6.97;;;9.20;87.00;;;;;;5102455;28;20527;-75
2023/05/16 05:32:53;;;;;;;31.80;7.17;;;9.30;85.60;;;;;;5098800;28;20434;-73
2023/05/16 05:35:19;;;;;;;32.88;7.60;;;9.40;84.90;;;;;;5098040;28;20427;-74
2023/05/16 05:37:45;;;;;;;26.77;5.35;;;9.50;81.50;;;;;;5097912;28;20385;-73
2023/05/16 05:40:11;;;;;;;29.93;5.50;;;9.50;77.00;;;;;;5097981;28;20397;-72
2023/05/16 05:42:36;;;;;;;24.00;5.00;;;9.50;75.80;;;;;;5098320;28;20858;-75
2023/05/16 05:45:02;;;;;;;16.47;4.63;;;9.60;75.40;;;;;;5097727;28;20377;-75
2023/05/16 05:47:28;;;;;;;31.70;5.20;;;9.60;71.20;;;;;;5098029;28;20382;-71
2023/05/16 05:49:53;;;;;;;19.80;4.63;;;9.60;71.60;;;;;;5100017;28;20468;-74
2023/05/16 05:52:19;;;;;;;20.60;4.60;;;9.70;69.90;;;;;;5097499;28;20444;-74
2023/05/16 05:54:46;;;;;;;25.60;4.60;;;9.80;69.40;;;;;;5097964;28;20417;-73
2023/05/16 05:57:11;;;;;;;21.60;4.32;;;10.00;66.60;;;;;;5097919;28;20382;-74
2023/05/16 05:59:37;;;;;;;22.47;4.60;;;10.00;60.50;;;;;;5079718;28;20402;-74
2023/05/16 06:02:03;;;;;;;21.17;4.07;;;10.20;60.40;;;;;;5097106;28;20738;-73
2023/05/16 06:04:28;;;;;;;20.07;4.70;;;10.40;57.70;;;;;;5097715;28;20927;-73
2023/05/16 06:06:54;;;;;;;24.10;4.43;;;10.50;57.00;;;;;;5098196;28;20389;-74
2023/05/16 06:09:21;;;;;;;20.87;4.00;;;10.70;55.50;;;;;;5101178;28;20410;-77
2023/05/16 06:11:46;;;;;;;18.52;3.80;;;10.80;55.90;;;;;;5100125;28;20378;-74
2023/05/16 06:14:14;;;;;;;14.88;3.88;;;11.20;51.40;;;;;;5103827;28;20397;-73
2023/05/16 06:16:39;;;;;;;18.70;4.10;;;11.30;47.50;;;;;;5105792;28;20389;-75
2023/05/16 06:19:05;;;;;;;25.30;5.50;;;11.40;46.00;;;;;;5083842;28;20406;-73
2023/05/16 06:21:32;;;;;;;18.80;4.40;;;11.60;48.70;;;;;;5099531;28;20374;-72
2023/05/16 06:23:57;;;;;;;32.10;5.75;;;11.90;48.50;;;;;;5101990;28;20370;-73
2023/05/16 06:26:23;;;;;;;20.67;5.33;;;12.20;50.30;;;;;;5083782;28;20397;-72
2023/05/16 06:28:49;;;;;;;18.90;5.60;;;11.80;47.60;;;;;;5098303;28;20386;-73
2023/05/16 06:31:14;;;;;;;34.23;6.00;;;11.80;49.20;;;;;;5096765;28;20387;-72
2023/05/16 06:33:40;;;;;;;23.60;5.45;;;11.60;45.30;;;;;;5097495;28;20381;-73
2023/05/16 06:36:06;;;;;;;22.20;4.40;;;11.60;46.80;;;;;;5098246;28;20381;-74
2023/05/16 06:38:31;;;;;;;22.73;5.05;;;11.50;51.40;;;;;;5099031;28;20402;-74
2023/05/16 06:40:57;;;;;;;25.35;5.47;;;11.40;52.80;;;;;;5095235;28;20421;-73
2023/05/16 06:43:23;;;;;;;19.20;5.40;;;11.50;51.50;;;;;;5095781;28;20381;-76
2023/05/16 06:45:48;;;;;;;22.67;5.05;;;11.40;53.50;;;;;;5096385;28;20536;-73
2023/05/16 06:48:14;;;;;;;24.33;5.60;;;11.30;49.40;;;;;;5096224;28;20374;-74
2023/05/16 06:50:40;;;;;;;21.35;5.47;;;11.00;49.00;;;;;;5097821;28;20378;-74
2023/05/16 06:53:06;;;;;;;29.40;6.30;;;10.90;50.50;;;;;;5100019;28;20377;-72
2023/05/16 06:55:32;;;;;;;27.85;6.63;;;11.00;52.10;;;;;;5099716;28;20386;-72
2023/05/16 06:57:58;;;;;;;25.48;5.10;;;11.00;51.50;;;;;;5098322;28;20394;-72
2023/05/16 07:00:23;;;;;;;21.17;5.57;;;11.00;52.90;;;;;;5076796;28;20408;-74
2023/05/16 07:02:49;;;;;;;15.35;4.20;;;10.90;54.40;;;;;;5076498;28;20376;-74
2023/05/16 07:05:14;;;;;;;19.00;4.10;;;11.00;49.40;;;;;;5104649;28;20493;-73
2023/05/16 07:07:40;;;;;;;20.60;4.90;;;10.80;49.80;;;;;;5110461;28;20406;-75
2023/05/16 07:10:06;;;;;;;17.88;4.90;;;10.70;49.20;;;;;;5103671;28;20400;-74
2023/05/16 07:12:32;;;;;;;20.40;4.83;;;10.70;50.70;;;;;;5097025;28;20405;-75
2023/05/16 07:14:57;;;;;;;18.97;4.67;;;10.70;49.90;;;;;;5077083;28;20776;-75
2023/05/16 07:17:23;;;;;;;20.60;4.50;;;10.50;48.50;;;;;;5095053;28;20398;-73
2023/05/16 07:19:49;;;;;;;15.95;4.68;;;10.60;48.50;;;;;;5087978;28;20465;-73
2023/05/16 07:22:15;;;;;;;18.98;4.35;;;10.60;46.10;;;;;;5074493;28;20380;-74
2023/05/16 07:24:40;;;;;;;13.27;3.40;;;10.70;45.70;;;;;;5088711;28;20397;-75
2023/05/16 07:27:06;;;;;;;17.17;3.60;;;10.70;45.10;;;;;;5093655;28;20531;-74
2023/05/16 07:29:32;;;;;;;14.40;2.73;;;10.70;41.90;;;;;;5095055;28;20460;-75
2023/05/16 07:31:57;;;;;;;23.47;3.70;;;10.60;40.60;;;;;;5077483;28;20439;-75
2023/05/16 07:34:23;;;;;;;12.30;3.30;;;10.70;43.30;;;;;;5095032;28;20389;-74
2023/05/16 07:36:49;;;;;;;7.82;3.28;;;10.80;38.20;;;;;;5093944;28;20382;-76
2023/05/16 07:39:15;;;;;;;11.10;3.13;;;11.00;37.90;;;;;;5095380;28;20402;-75
2023/05/16 07:41:40;;;;;;;13.75;3.90;;;11.00;35.90;;;;;;5072419;28;20400;-74
2023/05/16 07:44:06;;;;;;;14.85;3.30;;;11.10;35.00;;;;;;5077883;28;20909;-74
2023/05/16 07:46:31;;;;;;;12.00;3.35;;;11.20;35.50;;;;;;5096591;28;20402;-74
2023/05/16 07:48:57;;;;;;;14.13;2.78;;;11.30;32.10;;;;;;5112937;28;20390;-73
2023/05/16 07:51:22;;;;;;;14.25;3.63;;;11.50;31.40;;;;;;5109041;28;20374;-73
2023/05/16 07:53:48;;;;;;;19.80;4.43;;;11.70;31.70;;;;;;5094316;28;20378;-75
2023/05/16 07:56:13;;;;;;;20.87;4.00;;;11.70;32.90;;;;;;5094070;28;20440;-72
2023/05/16 07:58:40;;;;;;;13.03;3.47;;;11.70;30.70;;;;;;5093956;28;20398;-73
2023/05/16 08:01:06;;;;;;;12.87;3.80;;;11.70;32.70;;;;;;5092014;28;20421;-73
2023/05/16 08:03:31;;;;;;;13.07;3.13;;;11.80;29.20;;;;;;5091430;28;20394;-72
2023/05/16 08:05:57;;;;;;;14.57;3.30;;;11.70;28.20;;;;;;5074549;28;20466;-73
2023/05/16 08:08:22;;;;;;;10.40;2.80;;;11.80;29.70;;;;;;5081972;28;20833;-73
2023/05/16 08:10:48;;;;;;;15.13;2.73;;;11.80;26.90;;;;;;5078195;28;20472;-74
2023/05/16 08:13:13;;;;;;;7.63;1.87;;;11.90;28.10;;;;;;5072077;28;20740;-74
2023/05/16 08:15:39;;;;;;;11.47;2.50;;;11.70;26.40;;;;;;5071667;28;20841;-73
2023/05/16 08:18:14;;;;;;;13.17;2.93;;;11.70;27.20;;;;;;5054286;28;20895;-74
2023/05/16 08:20:41;;;;;;;12.02;2.45;;;11.80;26.70;;;;;;5065370;28;20426;-74
2023/05/16 08:23:07;;;;;;;9.87;2.57;;;12.00;25.30;;;;;;5083580;28;20443;-74
2023/05/16 08:25:33;;;;;;;9.93;2.60;;;12.10;24.20;;;;;;5091272;28;20401;-74
2023/05/16 08:28:00;;;;;;;10.90;3.10;;;12.00;24.30;;;;;;5091099;28;20469;-73
2023/05/16 08:30:26;;;;;;;10.80;3.28;;;12.10;24.50;;;;;;5090651;28;20394;-72
2023/05/16 08:32:52;;;;;;;15.30;3.88;;;12.50;24.10;;;;;;5091627;28;20407;-77
2023/05/16 08:35:18;;;;;;;14.38;4.07;;;12.80;23.10;;;;;;5092030;28;20398;-76
2023/05/16 08:37:43;;;;;;;9.85;2.88;;;13.20;22.90;;;;;;5092164;28;20461;-77
2023/05/16 08:40:10;;;;;;;13.77;3.33;;;13.30;20.40;;;;;;5092214;28;20404;-77
2023/05/16 08:42:36;;;;;;;17.10;3.20;;;13.20;22.30;;;;;;5090701;28;20820;-73
2023/05/16 08:45:03;;;;;;;10.40;3.10;;;13.40;21.40;;;;;;5091484;28;20385;-72
2023/05/16 08:47:30;;;;;;;13.60;2.70;;;13.70;23.20;;;;;;5089873;28;20492;-74
2023/05/16 08:49:57;;;;;;;13.50;2.40;;;13.90;22.70;;;;;;5091893;28;20754;-72
2023/05/16 08:52:30;;;;;;;12.43;2.63;;;13.70;22.10;;;;;;5090696;28;20401;-74
2023/05/16 08:55:04;;;;;;;7.95;2.05;;;13.50;22.10;;;;;;5091178;28;20378;-72
2023/05/16 08:57:32;;;;;;;9.23;2.43;;;13.50;21.30;;;;;;5090573;28;20481;-72
2023/05/16 08:59:58;;;;;;;9.63;2.40;;;13.30;21.00;;;;;;5071356;28;20414;-73
2023/05/16 09:02:24;;;;;;;8.93;2.40;;;13.00;22.20;;;;;;5089907;28;20381;-74
2023/05/16 09:04:50;;;;;;;6.55;2.47;;;12.90;23.30;;;;;;5091000;28;20428;-74
2023/05/16 09:07:16;;;;;;;12.05;2.35;;;13.00;22.80;;;;;;5091107;28;20381;-73
2023/05/16 09:09:41;;;;;;;9.63;2.57;;;12.80;22.20;;;;;;5091547;28;20392;-74
2023/05/16 09:12:07;;;;;;;11.60;2.67;;;12.70;24.20;;;;;;5090414;28;20427;-73
2023/05/16 09:14:34;;;;;;;10.40;2.60;;;12.70;25.30;;;;;;5091098;28;20377;-73
2023/05/16 09:17:07;;;;;;;8.63;2.72;;;12.50;25.20;;;;;;5090939;28;20382;-73
2023/05/16 09:19:40;;;;;;;11.10;2.60;;;12.70;25.10;;;;;;5090957;28;20898;-74
2023/05/16 09:22:12;;;;;;;15.30;3.30;;;13.00;23.50;;;;;;5090583;28;20381;-73
2023/05/16 09:24:39;;;;;;;11.57;3.35;;;13.40;21.30;;;;;;5091601;28;20382;-74
2023/05/16 09:27:13;;;;;;;10.40;2.50;;;13.50;20.90;;;;;;5090860;28;20809;-73
2023/05/16 09:29:43;;;;;;;9.35;2.30;;;13.20;21.30;;;;;;5091099;28;20385;-73
2023/05/16 09:32:17;;;;;;;12.18;2.22;;;12.90;21.80;;;;;;5090142;28;20386;-74
2023/05/16 09:34:48;;;;;;;9.60;2.37;;;13.10;21.50;;;;;;5090774;28;20434;-74
2023/05/16 09:37:18;;;;;;;9.98;2.28;;;13.30;21.50;;;;;;5090850;28;20378;-74
2023/05/16 09:39:48;;;;;;;8.88;2.20;;;13.50;19.60;;;;;;5090830;28;20402;-73
2023/05/16 09:42:15;;;;;;;10.25;2.50;;;13.50;19.10;;;;;;5091091;28;20413;-73
2023/05/16 09:44:44;;;;;;;4.93;2.05;;;13.80;18.60;;;;;;5090912;28;20374;-73
2023/05/16 09:47:10;;;;;;;9.70;2.50;;;14.00;17.30;;;;;;5090649;28;20724;-74
2023/05/16 09:49:36;;;;;;;6.97;2.00;;;13.80;17.00;;;;;;5090616;28;20438;-71
2023/05/16 09:52:03;;;;;;;6.30;2.50;;;13.80;17.10;;;;;;5089888;28;20382;-73
2023/05/16 09:54:33;;;;;;;13.50;2.13;;;14.00;16.70;;;;;;5091181;28;20785;-74
2023/05/16 09:56:59;;;;;;;6.85;2.50;;;14.30;16.10;;;;;;5090536;28;20413;-74
2023/05/16 09:59:27;;;;;;;8.30;2.20;;;14.70;15.80;;;;;;5090489;28;20868;-74
2023/05/16 10:01:56;;;;;;;7.38;2.10;;;15.00;14.00;;;;;;5089998;28;20374;-75
2023/05/16 10:04:21;;;;;;;8.85;1.85;;;15.00;14.90;;;;;;5090586;28;20382;-74
2023/05/16 10:06:50;;;;;;;7.33;2.10;;;15.00;15.00;;;;;;5090571;28;20427;-74
2023/05/16 10:09:17;;;;;;;7.80;2.00;;;14.80;15.40;;;;;;5091069;28;20386;-74
2023/05/16 10:11:45;;;;;;;7.45;1.90;;;14.30;15.30;;;;;;5089702;28;20392;-74
2023/05/16 10:14:12;;;;;;;5.53;1.83;;;14.20;16.90;;;;;;5092223;28;20473;-72
2023/05/16 10:16:42;;;;;;;7.63;2.30;;;14.20;17.50;;;;;;5094870;28;20382;-74
2023/05/16 10:19:08;;;;;;;9.90;1.90;;;14.20;17.80;;;;;;5075764;28;20398;-73
2023/05/16 10:21:36;;;;;;;7.05;2.20;;;14.00;17.40;;;;;;5093641;28;20707;-73
2023/05/16 10:24:05;;;;;;;6.07;2.00;;;13.90;18.20;;;;;;5093961;28;20526;-75
2023/05/16 10:26:31;;;;;;;5.55;1.60;;;13.90;17.80;;;;;;5094118;28;20723;-73
2023/05/16 10:28:57;;;;;;;8.82;2.42;;;13.90;18.70;;;;;;5094042;28;20415;-74
2023/05/16 10:31:23;;;;;;;8.55;2.00;;;14.20;18.10;;;;;;5093321;28;20863;-74
2023/05/16 10:33:49;;;;;;;7.22;2.20;;;14.50;17.60;;;;;;5094090;28;20409;-75
2023/05/16 10:36:16;;;;;;;7.53;2.15;;;14.70;17.70;;;;;;5094118;28;20377;-73
2023/05/16 10:38:43;;;;;;;8.35;2.13;;;14.80;17.30;;;;;;5076254;28;20959;-74
2023/05/16 10:41:10;;;;;;;11.93;2.42;;;15.00;15.30;;;;;;5093898;28;20385;-74
2023/05/16 10:43:35;;;;;;;8.95;3.10;;;15.10;15.60;;;;;;5094968;28;20375;-75
2023/05/16 10:46:08;;;;;;;4.90;2.57;;;14.90;17.20;;;;;;5095220;28;20378;-74
2023/05/16 10:48:39;;;;;;;14.20;3.40;;;14.80;17.30;;;;;;5094388;28;20412;-74
2023/05/16 10:51:33;;;;;;;6.17;2.00;;;14.60;19.10;;;;;;5093123;28;20473;-75
2023/05/16 10:54:06;;;;;;;6.45;2.35;;;14.50;19.60;;;;;;5077321;28;20424;-74
2023/05/16 10:56:32;;;;;;;12.85;3.53;;;14.20;20.10;;;;;;5095781;28;20724;-76
2023/05/16 10:58:58;;;;;;;8.75;2.38;;;13.90;21.90;;;;;;5094526;28;20410;-73
2023/05/16 11:01:28;;;;;;;12.27;2.97;;;13.50;23.90;;;;;;5098954;28;20480;-74
2023/05/16 11:03:58;;;;;;;10.38;2.35;;;13.30;27.50;;;;;;5100658;28;20370;-73
2023/05/16 11:06:31;;;;;;;9.05;2.20;;;13.20;26.70;;;;;;5097749;28;20389;-74
2023/05/16 11:09:09;;;;;;;17.83;3.20;;;13.40;25.80;;;;;;5094633;28;20453;-74
2023/05/16 11:11:56;;;;;;;17.55;2.75;;;13.60;23.80;;;;;;5093009;28;20386;-75
2023/05/16 11:14:36;;;;;;;14.70;3.22;;;13.80;24.20;;;;;;5094001;28;20386;-75
2023/05/16 11:17:22;;;;;;;13.20;2.90;;;13.50;23.60;;;;;;5093394;28;20541;-74
2023/05/16 11:19:48;;;;;;;6.40;2.15;;;13.70;25.00;;;;;;5093045;28;20789;-75
2023/05/16 11:22:20;;;;;;;11.05;2.78;;;13.90;24.00;;;;;;5074504;28;20442;-72
2023/05/16 11:24:53;;;;;;;8.82;2.65;;;14.10;21.70;;;;;;5092615;28;20386;-72
2023/05/16 11:27:27;;;;;;;12.55;3.00;;;14.60;21.30;;;;;;5092867;28;20432;-73
2023/05/16 11:30:03;;;;;;;8.18;2.40;;;14.90;19.00;;;;;;5093423;28;20392;-73
2023/05/16 11:32:30;;;;;;;13.50;2.55;;;14.80;19.20;;;;;;5093319;28;20382;-75
2023/05/16 11:34:57;;;;;;;7.53;2.00;;;14.60;19.70;;;;;;5093397;28;20378;-76
2023/05/16 11:37:22;;;;;;;14.07;3.22;;;14.60;19.80;;;;;;5093101;28;20724;-74
2023/05/16 11:39:48;;;;;;;10.90;2.73;;;14.70;20.10;;;;;;5093298;28;20459;-71
2023/05/16 11:42:14;;;;;;;6.90;2.17;;;15.10;19.10;;;;;;5092515;28;20946;-73
2023/05/16 11:44:40;;;;;;;7.70;2.40;;;15.60;17.50;;;;;;5093039;28;20378;-74
2023/05/16 11:47:06;;;;;;;9.77;2.30;;;15.90;17.40;;;;;;5093057;28;20862;-73
2023/05/16 11:49:34;;;;;;;11.48;1.92;;;16.30;17.10;;;;;;5092961;28;20390;-73
2023/05/16 11:52:00;;;;;;;4.43;1.60;;;16.20;16.50;;;;;;5091993;28;20410;-74
2023/05/16 11:54:25;;;;;;;5.68;1.20;;;16.00;14.90;;;;;;5092810;28;20416;-72
2023/05/16 11:56:52;;;;;;;3.42;1.20;;;15.30;14.70;;;;;;5092447;28;20382;-73
2023/05/16 11:59:17;;;;;;;5.20;1.40;;;15.00;15.80;;;;;;5092484;28;20766;-73
2023/05/16 12:01:43;;;;;;;5.40;1.40;;;14.60;16.70;;;;;;5092405;28;20382;-73
2023/05/16 12:04:11;;;;;;;6.30;1.33;;;14.20;16.80;;;;;;5092977;28;20386;-73
2023/05/16 12:06:37;;;;;;;4.05;1.60;;;14.50;17.50;;;;;;5093896;28;20386;-76
2023/05/16 12:09:09;;;;;;;11.27;2.30;;;14.50;18.00;;;;;;5093170;28;21097;-75
2023/05/16 12:11:40;;;;;;;11.63;2.22;;;14.40;18.90;;;;;;5075742;28;20406;-76
2023/05/16 12:14:11;;;;;;;3.40;1.10;;;14.70;18.60;;;;;;5092940;28;20393;-75
2023/05/16 12:16:37;;;;;;;5.28;1.80;;;14.40;18.20;;;;;;5092578;28;20378;-74
2023/05/16 12:19:05;;;;;;;7.00;1.70;;;14.80;18.60;;;;;;5092274;28;20431;-74
2023/05/16 12:21:31;;;;;;;8.30;1.80;;;15.20;18.40;;;;;;5091860;28;20859;-73
2023/05/16 12:23:57;;;;;;;6.82;2.28;;;14.70;19.30;;;;;;5092109;28;20449;-73
2023/05/16 12:26:29;;;;;;;7.20;1.90;;;14.70;21.50;;;;;;5092896;28;20386;-75
2023/05/16 12:28:59;;;;;;;7.95;2.00;;;14.90;21.70;;;;;;5092541;28;20412;-75
2023/05/16 12:31:26;;;;;;;5.80;2.10;;;15.30;20.20;;;;;;5091077;28;20488;-74
2023/05/16 12:33:53;;;;;;;6.45;2.20;;;15.80;19.90;;;;;;5092546;28;20827;-74
2023/05/16 12:36:19;;;;;;;6.05;1.83;;;16.10;17.60;;;;;;5092144;28;20382;-74
2023/05/16 12:38:48;;;;;;;3.00;1.60;;;16.00;16.60;;;;;;5092516;28;20404;-75
2023/05/16 12:41:18;;;;;;;5.18;1.60;;;16.00;15.70;;;;;;5092402;28;20443;-76